createdAt,value
2023-12-16T00:01:18.459Z,55.26
2023-12-16T00:03:49.687Z,55.24
2023-12-16T00:06:21.421Z,56.33
2023-12-16T00:08:50.731Z,56.46
2023-12-16T00:11:19.514Z,56.09
2023-12-16T00:13:49.230Z,55.69
2023-12-16T00:16:18.206Z,55.36
2023-12-16T00:18:48.839Z,54.81
2023-12-16T00:21:18.155Z,55.42
2023-12-16T00:23:47.199Z,55.49
2023-12-16T00:26:16.024Z,56.02
2023-12-16T00:28:45.124Z,55.77
2023-12-16T00:31:13.967Z,55.76
2023-12-16T00:33:43.310Z,55.28
2023-12-16T00:36:13.816Z,55.35
2023-12-16T00:38:42.898Z,55.65
2023-12-16T00:41:11.887Z,55.84
2023-12-16T00:43:40.899Z,55.87
2023-12-16T00:46:10.658Z,55.32
2023-12-16T00:48:39.766Z,55.29
2023-12-16T00:51:08.820Z,55.49
2023-12-16T00:53:39.384Z,55.71
2023-12-16T00:56:09.806Z,55.82
2023-12-16T00:58:38.917Z,55.21
2023-12-16T01:01:07.996Z,54.68
2023-12-16T01:03:38.842Z,55.38
2023-12-16T01:06:07.871Z,55.60
2023-12-16T01:08:37.041Z,54.65
2023-12-16T01:11:07.926Z,54.54
2023-12-16T01:13:37.029Z,54.77
2023-12-16T01:16:06.494Z,55.62
2023-12-16T01:18:35.641Z,55.25
2023-12-16T01:21:07.104Z,55.42
2023-12-16T01:23:36.173Z,55.48
2023-12-16T01:26:06.607Z,55.53
2023-12-16T01:28:36.278Z,54.76
2023-12-16T01:31:05.460Z,54.83
2023-12-16T01:33:34.547Z,55.75
2023-12-16T01:36:03.687Z,55.21
2023-12-16T01:38:33.004Z,54.86
2023-12-16T01:41:01.801Z,55.14
2023-12-16T01:43:32.328Z,55.43
2023-12-16T01:46:05.853Z,55.27
2023-12-16T01:48:36.469Z,55.53
2023-12-16T01:51:05.754Z,55.27
2023-12-16T01:53:36.323Z,55.28
2023-12-16T01:56:05.971Z,55.31
2023-12-16T01:58:37.753Z,54.56
2023-12-16T02:01:07.316Z,55.27
2023-12-16T02:03:38.727Z,55.24
2023-12-16T02:06:08.080Z,54.96
2023-12-16T02:08:38.356Z,54.67
2023-12-16T02:11:11.242Z,54.54
2023-12-16T02:13:43.529Z,55.10
2023-12-16T02:16:12.375Z,55.47
2023-12-16T02:18:41.496Z,54.70
2023-12-16T02:21:10.386Z,54.83
2023-12-16T02:23:42.409Z,54.99
2023-12-16T02:26:11.390Z,55.61
2023-12-16T02:28:41.298Z,55.49
2023-12-16T02:31:10.133Z,55.26
2023-12-16T02:33:40.309Z,55.58
2023-12-16T02:36:09.453Z,56.16
2023-12-16T02:38:38.482Z,56.10
2023-12-16T02:41:08.652Z,56.28
2023-12-16T02:43:37.878Z,56.80
2023-12-16T02:46:06.807Z,57.08
2023-12-16T02:48:35.969Z,57.68
2023-12-16T02:51:05.043Z,58.21
2023-12-16T02:53:34.233Z,58.09
2023-12-16T02:56:02.989Z,58.59
2023-12-16T02:58:33.423Z,58.59
2023-12-16T03:01:02.406Z,58.56
2023-12-16T03:03:31.554Z,58.95
2023-12-16T03:06:06.076Z,58.92
2023-12-16T03:08:35.996Z,59.24
2023-12-16T03:11:06.157Z,59.72
2023-12-16T03:13:37.180Z,59.40
2023-12-16T03:16:06.834Z,59.25
2023-12-16T03:18:35.950Z,59.28
2023-12-16T03:21:06.298Z,59.49
2023-12-16T03:23:36.811Z,59.26
2023-12-16T03:26:05.900Z,60.00
2023-12-16T03:28:36.410Z,58.92
2023-12-16T03:31:05.594Z,59.13
2023-12-16T03:33:34.834Z,58.65
2023-12-16T03:36:03.740Z,58.33
2023-12-16T03:38:32.875Z,58.92
2023-12-16T03:41:01.823Z,58.28
2023-12-16T03:43:29.912Z,58.46
2023-12-16T03:46:00.131Z,58.43
2023-12-16T03:48:29.292Z,58.86
2023-12-16T03:50:58.126Z,59.14
2023-12-16T03:53:27.208Z,59.57
2023-12-16T03:55:56.005Z,58.98
2023-12-16T03:58:24.257Z,59.21
2023-12-16T04:00:53.184Z,58.81
2023-12-16T04:03:23.792Z,58.32
2023-12-16T04:05:52.772Z,57.76
2023-12-16T04:08:21.850Z,57.31
2023-12-16T04:10:50.588Z,57.17
2023-12-16T04:13:19.688Z,57.12
2023-12-16T04:15:53.801Z,57.27
2023-12-16T04:18:24.868Z,57.67
2023-12-16T04:20:53.753Z,57.36
2023-12-16T04:23:22.880Z,57.27
2023-12-16T04:25:51.702Z,57.26
2023-12-16T04:28:20.847Z,57.04
2023-12-16T04:30:49.823Z,56.87
2023-12-16T04:33:19.082Z,56.56
2023-12-16T04:35:49.228Z,56.63
2023-12-16T04:38:18.566Z,56.40
2023-12-16T04:40:47.297Z,56.46
2023-12-16T04:43:16.433Z,56.45
2023-12-16T04:45:46.527Z,57.06
2023-12-16T04:48:15.886Z,57.06
2023-12-16T04:50:44.865Z,56.61
2023-12-16T04:53:15.376Z,56.37
2023-12-16T04:55:44.415Z,56.21
2023-12-16T04:58:13.470Z,56.27
2023-12-16T05:00:42.310Z,56.27
2023-12-16T05:03:11.516Z,55.97
2023-12-16T05:05:40.347Z,55.82
2023-12-16T05:08:09.472Z,55.62
2023-12-16T05:10:39.954Z,56.06
2023-12-16T05:13:11.266Z,55.63
2023-12-16T05:15:40.726Z,55.71
2023-12-16T05:18:10.279Z,55.99
2023-12-16T05:20:40.155Z,55.71
2023-12-16T05:23:09.247Z,56.46
2023-12-16T05:25:41.173Z,56.50
2023-12-16T05:28:10.560Z,56.36
2023-12-16T05:30:39.459Z,56.18
2023-12-16T05:33:08.640Z,56.54
2023-12-16T05:35:37.558Z,56.83
2023-12-16T05:38:06.653Z,56.69
2023-12-16T05:40:35.378Z,56.43
2023-12-16T05:43:05.966Z,56.39
2023-12-16T05:45:34.739Z,56.62
2023-12-16T05:48:04.530Z,56.25
2023-12-16T05:50:33.416Z,56.42
2023-12-16T05:53:02.608Z,56.70
2023-12-16T05:55:31.496Z,56.34
2023-12-16T05:58:00.563Z,55.91
2023-12-16T06:00:30.995Z,56.42
2023-12-16T06:03:00.260Z,56.03
2023-12-16T06:05:29.664Z,55.97
2023-12-16T06:07:58.700Z,55.93
2023-12-16T06:10:27.416Z,55.72
2023-12-16T06:12:56.669Z,55.30
2023-12-16T06:15:26.300Z,55.22
2023-12-16T06:17:56.937Z,55.54
2023-12-16T06:20:25.758Z,56.03
2023-12-16T06:22:54.797Z,56.61
2023-12-16T06:25:23.672Z,59.09
2023-12-16T06:27:54.123Z,61.51
2023-12-16T06:30:23.053Z,62.99
2023-12-16T06:32:52.207Z,62.09
2023-12-16T06:35:22.394Z,63.40
2023-12-16T06:37:51.498Z,63.82
2023-12-16T06:40:20.385Z,64.09
2023-12-16T06:42:49.485Z,63.36
2023-12-16T06:45:18.274Z,64.34
2023-12-16T06:47:47.497Z,63.83
2023-12-16T06:50:16.832Z,65.23
2023-12-16T06:52:47.929Z,65.61
2023-12-16T06:55:17.020Z,64.59
2023-12-16T06:57:46.218Z,65.75
2023-12-16T07:00:16.068Z,64.91
2023-12-16T07:02:45.156Z,64.24
2023-12-16T07:05:13.978Z,64.42
2023-12-16T07:07:43.343Z,64.15
2023-12-16T07:10:13.833Z,63.10
2023-12-16T07:12:42.965Z,62.80
2023-12-16T07:15:12.307Z,61.63
2023-12-16T07:17:42.188Z,62.74
2023-12-16T07:20:11.896Z,64.02
2023-12-16T07:22:41.353Z,64.26
2023-12-16T07:25:10.655Z,64.13
2023-12-16T07:27:41.431Z,65.21
2023-12-16T07:30:11.508Z,64.71
2023-12-16T07:32:41.939Z,65.01
2023-12-16T07:35:14.722Z,65.66
2023-12-16T07:37:45.000Z,65.64
2023-12-16T07:40:14.226Z,66.37
2023-12-16T07:42:44.868Z,66.44
2023-12-16T07:45:14.098Z,65.18
2023-12-16T07:47:43.587Z,65.58
2023-12-16T07:50:12.959Z,65.34
2023-12-16T07:52:42.053Z,65.76
2023-12-16T07:55:11.720Z,65.73
2023-12-16T07:57:41.492Z,65.74
2023-12-16T08:00:13.018Z,64.74
2023-12-16T08:02:43.321Z,64.92
2023-12-16T08:05:12.122Z,65.14
2023-12-16T08:07:42.550Z,65.56
2023-12-16T08:10:11.770Z,66.02
2023-12-16T08:12:40.830Z,66.08
2023-12-16T08:15:12.007Z,66.92
2023-12-16T08:17:41.574Z,66.34
2023-12-16T08:20:11.800Z,66.12
2023-12-16T08:22:42.467Z,66.30
2023-12-16T08:25:11.937Z,65.63
2023-12-16T08:27:41.655Z,66.19
2023-12-16T08:30:14.720Z,65.74
2023-12-16T08:32:43.922Z,65.10
2023-12-16T08:35:12.916Z,64.20
2023-12-16T08:37:42.472Z,64.55
2023-12-16T08:40:12.621Z,64.52
2023-12-16T08:42:44.125Z,64.60
2023-12-16T08:45:15.164Z,63.77
2023-12-16T08:47:44.703Z,63.31
2023-12-16T08:50:13.976Z,62.92
2023-12-16T08:52:43.473Z,63.20
2023-12-16T08:55:13.680Z,60.84
2023-12-16T08:57:42.834Z,62.15
2023-12-16T09:00:12.691Z,61.73
2023-12-16T09:02:43.260Z,61.64
2023-12-16T09:05:12.456Z,61.38
2023-12-16T09:07:42.158Z,61.30
2023-12-16T09:10:11.192Z,61.08
2023-12-16T09:12:40.409Z,59.61
2023-12-16T09:15:10.462Z,58.45
2023-12-16T09:17:39.906Z,58.60
2023-12-16T09:20:11.265Z,58.31
2023-12-16T09:22:40.338Z,57.78
2023-12-16T09:25:10.148Z,56.78
2023-12-16T09:27:39.694Z,57.15
2023-12-16T09:30:09.725Z,58.13
2023-12-16T09:32:39.310Z,58.54
2023-12-16T09:35:08.832Z,59.52
2023-12-16T09:37:39.763Z,59.97
2023-12-16T09:40:10.179Z,58.11
2023-12-16T09:42:40.286Z,57.32
2023-12-16T09:45:11.273Z,57.36
2023-12-16T09:47:40.928Z,55.89
2023-12-16T09:50:12.639Z,54.73
2023-12-16T09:52:43.233Z,53.65
2023-12-16T09:55:12.173Z,53.91
2023-12-16T09:57:42.635Z,55.17
2023-12-16T10:00:14.354Z,55.16
2023-12-16T10:02:47.363Z,54.49
2023-12-16T10:05:18.713Z,55.22
2023-12-16T10:07:49.236Z,54.71
2023-12-16T10:10:18.176Z,55.61
2023-12-16T10:12:48.882Z,56.41
2023-12-16T10:15:31.423Z,55.69
2023-12-16T10:18:02.654Z,54.53
2023-12-16T10:20:32.465Z,55.04
2023-12-16T10:23:03.726Z,53.38
2023-12-16T10:25:33.979Z,52.60
2023-12-16T10:28:03.792Z,51.86
2023-12-16T10:30:33.541Z,50.88
2023-12-16T10:33:05.161Z,50.47
2023-12-16T10:35:34.491Z,48.79
2023-12-16T10:38:06.059Z,48.26
2023-12-16T10:40:38.965Z,48.28
2023-12-16T10:43:10.208Z,48.31
2023-12-16T10:45:39.141Z,47.71
2023-12-16T10:48:12.828Z,47.00
2023-12-16T10:50:46.252Z,45.83
2023-12-16T10:53:23.866Z,46.04
2023-12-16T10:55:56.787Z,45.42
2023-12-16T10:58:27.545Z,45.25
2023-12-16T11:01:06.768Z,46.36
2023-12-16T11:03:39.821Z,50.65
2023-12-16T11:06:10.430Z,54.36
2023-12-16T11:08:41.725Z,55.80
2023-12-16T11:11:11.338Z,54.81
2023-12-16T11:13:41.470Z,55.54
2023-12-16T11:16:18.012Z,56.45
2023-12-16T11:18:51.704Z,57.81
2023-12-16T11:21:24.160Z,58.73
2023-12-16T11:23:56.008Z,58.40
2023-12-16T11:26:28.119Z,58.38
2023-12-16T11:28:57.561Z,58.76
2023-12-16T11:31:27.955Z,58.10
2023-12-16T11:33:57.203Z,57.91
2023-12-16T11:36:51.064Z,58.10
2023-12-16T11:39:40.643Z,57.18
2023-12-16T11:42:11.897Z,56.98
2023-12-16T11:44:51.816Z,57.42
2023-12-16T11:47:23.287Z,59.00
2023-12-16T11:49:52.884Z,59.63
2023-12-16T11:52:23.790Z,58.50
2023-12-16T11:54:55.605Z,57.87
2023-12-16T11:57:26.520Z,59.12
2023-12-16T11:59:58.121Z,59.30
2023-12-16T12:02:27.191Z,59.98
2023-12-16T12:05:01.296Z,60.82
2023-12-16T12:07:31.475Z,60.77
2023-12-16T12:10:02.482Z,59.94
2023-12-16T12:12:31.351Z,58.95
2023-12-16T12:15:00.410Z,60.70
2023-12-16T12:17:29.718Z,59.95
2023-12-16T12:19:59.499Z,58.84
2023-12-16T12:22:29.975Z,58.96
2023-12-16T12:24:59.828Z,59.50
2023-12-16T12:27:31.808Z,59.94
2023-12-16T12:30:02.413Z,60.20
2023-12-16T12:32:32.831Z,59.90
2023-12-16T12:35:06.649Z,60.29
2023-12-16T12:37:38.250Z,59.12
2023-12-16T12:40:18.057Z,59.03
2023-12-16T12:42:54.647Z,58.57
2023-12-16T12:45:30.723Z,60.07
2023-12-16T12:48:12.115Z,59.45
2023-12-16T12:50:43.198Z,59.11
2023-12-16T12:53:23.371Z,58.78
2023-12-16T12:55:56.465Z,58.05
2023-12-16T12:58:29.530Z,58.62
2023-12-16T13:01:02.085Z,59.63
2023-12-16T13:03:32.961Z,60.26
2023-12-16T13:06:06.617Z,60.15
2023-12-16T13:08:37.771Z,59.03
2023-12-16T13:11:07.686Z,58.31
2023-12-16T13:13:37.915Z,56.57
2023-12-16T13:16:09.241Z,55.68
2023-12-16T13:18:43.591Z,54.90
2023-12-16T13:21:13.613Z,55.21
2023-12-16T13:23:42.622Z,56.79
2023-12-16T13:26:13.845Z,58.09
2023-12-16T13:28:44.388Z,58.90
2023-12-16T13:31:13.615Z,59.18
2023-12-16T13:33:43.424Z,58.48
2023-12-16T13:36:33.200Z,57.67
2023-12-16T13:39:01.712Z,56.46
2023-12-16T13:41:31.379Z,55.83
2023-12-16T13:44:04.773Z,54.71
2023-12-16T13:46:34.154Z,55.84
2023-12-16T13:49:05.056Z,54.44
2023-12-16T13:51:38.527Z,56.99
2023-12-16T13:54:07.539Z,55.73
2023-12-16T13:56:36.866Z,55.15
2023-12-16T13:59:07.289Z,53.82
2023-12-16T14:01:36.507Z,52.87
2023-12-16T14:04:05.514Z,56.98
2023-12-16T14:06:34.819Z,58.37
2023-12-16T14:09:03.686Z,61.61
2023-12-16T14:11:32.848Z,62.77
2023-12-16T14:14:01.595Z,63.50
2023-12-16T14:16:32.133Z,63.76
2023-12-16T14:19:01.131Z,62.97
2023-12-16T14:21:30.578Z,63.46
2023-12-16T14:23:59.349Z,64.13
2023-12-16T14:26:28.617Z,63.09
2023-12-16T14:28:57.380Z,64.45
2023-12-16T14:31:27.002Z,64.85
2023-12-16T14:33:57.347Z,63.94
2023-12-16T14:36:26.474Z,64.04
2023-12-16T14:38:56.700Z,63.28
2023-12-16T14:41:25.817Z,62.58
2023-12-16T14:43:54.721Z,64.09
2023-12-16T14:46:23.858Z,64.09
2023-12-16T14:48:52.765Z,64.57
2023-12-16T14:51:24.250Z,64.58
2023-12-16T14:53:53.236Z,63.52
2023-12-16T14:56:23.265Z,62.94
2023-12-16T14:58:52.028Z,63.28
2023-12-16T15:01:23.025Z,62.67
2023-12-16T15:03:50.914Z,62.16
2023-12-16T15:06:26.460Z,60.97
2023-12-16T15:09:00.955Z,61.23
2023-12-16T15:11:30.842Z,60.37
2023-12-16T15:13:59.741Z,59.92
2023-12-16T15:16:28.853Z,61.52
2023-12-16T15:18:57.823Z,60.21
2023-12-16T15:21:26.973Z,58.59
2023-12-16T15:23:55.818Z,58.79
2023-12-16T15:26:27.901Z,58.84
2023-12-16T15:28:56.664Z,58.74
2023-12-16T15:31:25.934Z,57.47
2023-12-16T15:33:54.836Z,58.37
2023-12-16T15:36:24.025Z,58.20
2023-12-16T15:38:52.949Z,59.01
2023-12-16T15:41:25.094Z,59.48
2023-12-16T15:43:57.408Z,59.66
2023-12-16T15:46:26.687Z,59.84
2023-12-16T15:48:55.613Z,58.93
2023-12-16T15:51:26.132Z,58.71
2023-12-16T15:53:55.073Z,58.04
2023-12-16T15:56:24.234Z,57.80
2023-12-16T15:58:52.980Z,57.35
2023-12-16T16:01:24.013Z,56.65
2023-12-16T16:03:53.451Z,56.84
2023-12-16T16:06:22.663Z,57.26
2023-12-16T16:08:51.492Z,57.57
2023-12-16T16:11:20.104Z,56.90
2023-12-16T16:13:49.565Z,55.99
2023-12-16T16:16:18.339Z,55.29
2023-12-16T16:18:49.090Z,54.88
2023-12-16T16:21:18.281Z,53.98
2023-12-16T16:23:47.418Z,53.66
2023-12-16T16:26:16.211Z,53.03
2023-12-16T16:28:45.286Z,52.54
2023-12-16T16:31:15.581Z,52.43
2023-12-16T16:33:45.873Z,52.53
2023-12-16T16:36:16.234Z,52.21
2023-12-16T16:38:45.431Z,52.07
2023-12-16T16:41:15.907Z,52.07
2023-12-16T16:43:45.758Z,51.94
2023-12-16T16:46:14.939Z,51.40
2023-12-16T16:48:44.128Z,51.93
2023-12-16T16:51:13.519Z,51.30
2023-12-16T16:53:46.062Z,51.86
2023-12-16T16:56:14.961Z,51.66
2023-12-16T16:58:44.108Z,51.75
2023-12-16T17:01:12.935Z,51.56
2023-12-16T17:03:42.166Z,51.66
2023-12-16T17:06:11.194Z,51.60
2023-12-16T17:08:40.332Z,51.04
2023-12-16T17:11:10.531Z,51.47
2023-12-16T17:13:39.676Z,51.57
2023-12-16T17:16:10.182Z,51.60
2023-12-16T17:18:39.294Z,51.14
2023-12-16T17:21:08.448Z,51.21
2023-12-16T17:23:37.976Z,51.51
2023-12-16T17:26:07.568Z,51.21
2023-12-16T17:28:38.162Z,51.46
2023-12-16T17:31:08.219Z,51.72
2023-12-16T17:33:38.390Z,51.95
2023-12-16T17:36:08.114Z,51.38
2023-12-16T17:38:37.283Z,51.30
2023-12-16T17:41:07.970Z,51.44
2023-12-16T17:43:38.462Z,52.01
2023-12-16T17:46:07.452Z,52.16
2023-12-16T17:48:36.819Z,52.08
2023-12-16T17:51:06.433Z,51.84
2023-12-16T17:53:35.568Z,52.40
2023-12-16T17:56:05.904Z,52.04
2023-12-16T17:58:37.834Z,51.90
2023-12-16T18:01:09.467Z,52.61
2023-12-16T18:03:38.835Z,52.21
2023-12-16T18:06:08.243Z,52.66
2023-12-16T18:08:37.369Z,51.93
2023-12-16T18:11:07.280Z,52.62
2023-12-16T18:13:36.882Z,52.72
2023-12-16T18:16:06.342Z,52.66
2023-12-16T18:18:42.429Z,52.77
2023-12-16T18:21:11.712Z,53.00
2023-12-16T18:23:40.966Z,53.05
2023-12-16T18:26:11.941Z,52.62
2023-12-16T18:28:41.021Z,54.02
2023-12-16T18:31:10.253Z,53.44
2023-12-16T18:33:41.245Z,53.24
2023-12-16T18:36:10.593Z,53.44
2023-12-16T18:38:40.219Z,53.61
2023-12-16T18:41:09.059Z,52.89
2023-12-16T18:43:39.686Z,52.95
2023-12-16T18:46:08.523Z,53.17
2023-12-16T18:48:37.713Z,53.66
2023-12-16T18:51:08.464Z,53.47
2023-12-16T18:53:37.655Z,53.59
2023-12-16T18:56:07.580Z,54.19
2023-12-16T18:58:36.709Z,53.45
2023-12-16T19:01:06.099Z,53.77
2023-12-16T19:03:35.312Z,53.18
2023-12-16T19:06:04.440Z,53.44
2023-12-16T19:08:35.006Z,54.27
2023-12-16T19:11:03.784Z,54.02
2023-12-16T19:13:32.961Z,54.63
2023-12-16T19:16:01.692Z,54.18
2023-12-16T19:18:30.829Z,55.39
2023-12-16T19:20:59.672Z,55.26
2023-12-16T19:23:29.065Z,54.97
2023-12-16T19:25:59.341Z,54.29
2023-12-16T19:28:28.411Z,55.08
2023-12-16T19:30:59.547Z,55.32
2023-12-16T19:33:28.757Z,54.37
2023-12-16T19:35:57.842Z,54.20
2023-12-16T19:38:26.954Z,55.40
2023-12-16T19:40:55.719Z,54.61
2023-12-16T19:43:26.182Z,55.08
2023-12-16T19:45:55.890Z,54.17
2023-12-16T19:48:25.174Z,54.53
2023-12-16T19:50:54.600Z,53.66
2023-12-16T19:53:24.162Z,54.09
2023-12-16T19:55:52.972Z,53.54
2023-12-16T19:58:22.038Z,54.36
2023-12-16T20:00:52.144Z,53.59
2023-12-16T20:03:21.656Z,53.58
2023-12-16T20:05:50.753Z,54.23
2023-12-16T20:08:19.864Z,54.19
2023-12-16T20:10:48.703Z,54.11
2023-12-16T20:13:17.756Z,53.87
2023-12-16T20:15:46.542Z,53.86
2023-12-16T20:18:17.179Z,53.57
2023-12-16T20:20:46.197Z,53.63
2023-12-16T20:23:17.488Z,54.24
2023-12-16T20:25:46.585Z,53.61
2023-12-16T20:28:15.687Z,53.99
2023-12-16T20:30:44.841Z,54.39
2023-12-16T20:33:14.154Z,54.10
2023-12-16T20:35:44.421Z,54.35
2023-12-16T20:38:27.389Z,54.58
2023-12-16T20:40:56.214Z,53.79
2023-12-16T20:43:25.384Z,54.21
2023-12-16T20:45:54.155Z,54.49
2023-12-16T20:48:23.929Z,53.39
2023-12-16T20:50:54.834Z,53.92
2023-12-16T20:53:24.821Z,54.17
2023-12-16T20:55:53.726Z,53.90
2023-12-16T20:58:22.858Z,54.23
2023-12-16T21:00:51.671Z,54.33
2023-12-16T21:03:20.795Z,54.24
2023-12-16T21:05:49.842Z,53.69
2023-12-16T21:08:20.328Z,54.15
2023-12-16T21:10:50.400Z,54.13
2023-12-16T21:13:19.526Z,54.10
2023-12-16T21:15:48.537Z,54.36
2023-12-16T21:18:17.985Z,54.36
2023-12-16T21:20:46.802Z,53.78
2023-12-16T21:23:15.892Z,54.16
2023-12-16T21:25:46.183Z,54.09
2023-12-16T21:28:15.557Z,54.33
2023-12-16T21:30:45.156Z,54.10
2023-12-16T21:33:14.618Z,53.46
2023-12-16T21:35:43.585Z,53.91
2023-12-16T21:38:14.122Z,54.19
2023-12-16T21:40:42.850Z,54.40
2023-12-16T21:43:13.453Z,54.30
2023-12-16T21:45:42.268Z,54.09
2023-12-16T21:48:13.458Z,53.67
2023-12-16T21:50:42.375Z,54.00
2023-12-16T21:53:12.644Z,53.87
2023-12-16T21:55:41.655Z,53.72
2023-12-16T21:58:12.211Z,54.34
2023-12-16T22:00:41.148Z,53.93
2023-12-16T22:03:10.432Z,54.01
2023-12-16T22:05:39.336Z,54.46
2023-12-16T22:08:08.421Z,53.77
2023-12-16T22:10:37.232Z,54.47
2023-12-16T22:13:06.402Z,54.64
2023-12-16T22:15:36.592Z,54.18
2023-12-16T22:18:05.723Z,54.59
2023-12-16T22:20:34.575Z,53.87
2023-12-16T22:23:03.585Z,54.47
2023-12-16T22:25:33.215Z,54.32
2023-12-16T22:28:02.294Z,53.72
2023-12-16T22:30:31.262Z,54.45
2023-12-16T22:33:01.824Z,54.53
2023-12-16T22:35:30.663Z,54.24
2023-12-16T22:37:59.710Z,54.51
2023-12-16T22:40:28.462Z,54.42
2023-12-16T22:42:57.491Z,54.45
2023-12-16T22:45:26.572Z,55.12
2023-12-16T22:47:55.857Z,55.05
2023-12-16T22:50:26.486Z,55.38
2023-12-16T22:52:55.581Z,55.03
2023-12-16T22:55:24.354Z,54.77
2023-12-16T22:57:53.390Z,55.24
2023-12-16T23:00:26.823Z,55.31
2023-12-16T23:02:56.189Z,55.55
2023-12-16T23:05:26.648Z,54.89
2023-12-16T23:07:55.768Z,55.08
2023-12-16T23:10:26.224Z,55.19
2023-12-16T23:12:57.283Z,55.45
2023-12-16T23:15:26.102Z,55.28
2023-12-16T23:17:55.458Z,55.51
2023-12-16T23:20:24.359Z,55.17
2023-12-16T23:22:54.904Z,55.36
2023-12-16T23:25:24.377Z,55.61
2023-12-16T23:27:53.492Z,55.67
2023-12-16T23:30:22.351Z,55.12
2023-12-16T23:32:51.690Z,55.16
2023-12-16T23:35:20.635Z,55.27
2023-12-16T23:37:50.619Z,55.42
2023-12-16T23:40:20.837Z,54.85
2023-12-16T23:42:50.325Z,55.29
2023-12-16T23:45:19.333Z,55.01
2023-12-16T23:47:48.661Z,55.14
2023-12-16T23:50:17.598Z,54.81
2023-12-16T23:52:46.830Z,55.54
2023-12-16T23:55:15.753Z,55.33
2023-12-16T23:57:46.531Z,55.51
